createdAt,value
2023-05-05T00:00:56.901Z,8.05
2023-05-05T00:01:57.045Z,8.09
2023-05-05T00:02:56.920Z,8.12
2023-05-05T00:03:56.979Z,8.10
2023-05-05T00:04:56.835Z,8.16
2023-05-05T00:05:56.856Z,8.10
2023-05-05T00:06:57.088Z,8.05
2023-05-05T00:07:56.841Z,8.00
2023-05-05T00:08:56.888Z,7.98
2023-05-05T00:09:56.820Z,7.85
2023-05-05T00:10:56.828Z,7.87
2023-05-05T00:11:56.831Z,7.79
2023-05-05T00:12:56.878Z,7.82
2023-05-05T00:13:56.796Z,7.82
2023-05-05T00:14:56.784Z,7.87
2023-05-05T00:15:56.826Z,7.79
2023-05-05T00:16:56.899Z,7.85
2023-05-05T00:17:56.793Z,7.82
2023-05-05T00:18:56.758Z,7.77
2023-05-05T00:19:56.736Z,7.76
2023-05-05T00:20:56.731Z,7.72
2023-05-05T00:21:56.732Z,7.67
2023-05-05T00:22:56.714Z,7.76
2023-05-05T00:23:56.709Z,7.70
2023-05-05T00:24:56.702Z,7.79
2023-05-05T00:25:56.698Z,7.66
2023-05-05T00:26:56.690Z,7.67
2023-05-05T00:27:56.674Z,7.69
2023-05-05T00:28:56.692Z,7.63
2023-05-05T00:29:56.661Z,7.61
2023-05-05T00:30:56.697Z,7.63
2023-05-05T00:31:56.662Z,7.60
2023-05-05T00:32:56.663Z,7.51
2023-05-05T00:33:56.694Z,7.53
2023-05-05T00:34:56.651Z,7.57
2023-05-05T00:35:56.652Z,7.53
2023-05-05T00:36:56.606Z,7.56
2023-05-05T00:37:56.600Z,7.56
2023-05-05T00:38:56.594Z,7.50
2023-05-05T00:39:56.575Z,7.51
2023-05-05T00:40:56.582Z,7.57
2023-05-05T00:41:56.562Z,7.54
2023-05-05T00:42:56.665Z,7.61
2023-05-05T00:43:56.591Z,7.47
2023-05-05T00:44:57.365Z,7.51
2023-05-05T00:45:56.577Z,7.50
2023-05-05T00:46:56.527Z,7.53
2023-05-05T00:47:56.594Z,7.54
2023-05-05T00:48:56.567Z,7.43
2023-05-05T00:49:56.545Z,7.38
2023-05-05T00:50:56.504Z,7.39
2023-05-05T00:51:56.489Z,7.42
2023-05-05T00:52:56.501Z,7.38
2023-05-05T00:53:56.512Z,7.33
2023-05-05T00:54:56.493Z,7.39
2023-05-05T00:55:56.534Z,7.42
2023-05-05T00:56:56.502Z,7.28
2023-05-05T00:57:56.483Z,7.39
2023-05-05T00:58:56.469Z,7.42
2023-05-05T01:00:28.399Z,7.32
2023-05-05T01:00:56.477Z,7.28
2023-05-05T01:02:29.988Z,7.38
2023-05-05T01:02:56.454Z,7.33
2023-05-05T01:04:28.938Z,7.35
2023-05-05T01:04:56.394Z,7.43
2023-05-05T01:06:29.441Z,7.39
2023-05-05T01:07:28.358Z,7.35
2023-05-05T01:07:57.065Z,7.29
2023-05-05T01:08:56.370Z,7.32
2023-05-05T01:10:29.979Z,7.18
2023-05-05T01:10:56.368Z,7.29
2023-05-05T01:12:29.811Z,7.31
2023-05-05T01:12:56.420Z,7.25
2023-05-05T01:13:56.503Z,7.28
2023-05-05T01:14:56.348Z,7.13
2023-05-05T01:15:56.343Z,7.18
2023-05-05T01:16:56.328Z,7.18
2023-05-05T01:17:56.405Z,7.23
2023-05-05T01:18:56.384Z,7.21
2023-05-05T01:19:56.339Z,7.33
2023-05-05T01:20:57.176Z,7.21
2023-05-05T01:21:56.279Z,7.24
2023-05-05T01:22:56.295Z,7.14
2023-05-05T01:23:56.279Z,7.11
2023-05-05T01:24:57.099Z,7.15
2023-05-05T01:25:56.253Z,7.11
2023-05-05T01:26:56.283Z,7.17
2023-05-05T01:27:56.248Z,7.14
2023-05-05T01:28:56.305Z,7.14
2023-05-05T01:29:56.248Z,7.05
2023-05-05T01:31:29.062Z,7.10
2023-05-05T01:31:56.393Z,7.06
2023-05-05T01:32:56.211Z,6.99
2023-05-05T01:33:56.179Z,7.05
2023-05-05T01:34:56.134Z,7.05
2023-05-05T01:35:56.160Z,7.05
2023-05-05T01:36:56.155Z,6.93
2023-05-05T01:37:56.155Z,7.02
2023-05-05T01:38:56.163Z,7.06
2023-05-05T01:39:56.150Z,7.02
2023-05-05T01:40:56.101Z,7.03
2023-05-05T01:41:56.122Z,7.00
2023-05-05T01:42:56.088Z,6.96
2023-05-05T01:43:56.124Z,6.97
2023-05-05T01:44:56.606Z,6.97
2023-05-05T01:45:56.087Z,6.99
2023-05-05T01:46:56.073Z,7.07
2023-05-05T01:47:56.118Z,7.05
2023-05-05T01:48:56.054Z,7.00
2023-05-05T01:49:56.059Z,6.97
2023-05-05T01:50:56.035Z,7.11
2023-05-05T01:51:56.036Z,7.05
2023-05-05T01:52:56.023Z,7.03
2023-05-05T01:53:56.011Z,7.03
2023-05-05T01:54:56.021Z,7.13
2023-05-05T01:55:56.017Z,7.03
2023-05-05T01:56:55.985Z,7.11
2023-05-05T01:57:56.547Z,7.05
2023-05-05T01:58:55.983Z,7.15
2023-05-05T01:59:55.945Z,7.14
2023-05-05T02:00:56.025Z,7.29
2023-05-05T02:01:55.980Z,7.20
2023-05-05T02:02:55.987Z,7.32
2023-05-05T02:03:55.923Z,7.32
2023-05-05T02:04:55.909Z,7.24
2023-05-05T02:05:55.893Z,7.28
2023-05-05T02:06:55.946Z,7.36
2023-05-05T02:07:55.892Z,7.35
2023-05-05T02:08:55.970Z,7.38
2023-05-05T02:09:55.891Z,7.47
2023-05-05T02:10:55.872Z,7.43
2023-05-05T02:11:55.864Z,7.42
2023-05-05T02:12:55.925Z,7.57
2023-05-05T02:13:55.937Z,7.58
2023-05-05T02:14:55.842Z,7.66
2023-05-05T02:15:55.834Z,7.61
2023-05-05T02:16:55.804Z,7.66
2023-05-05T02:17:55.911Z,7.67
2023-05-05T02:18:55.818Z,7.66
2023-05-05T02:19:55.802Z,7.66
2023-05-05T02:20:55.849Z,7.58
2023-05-05T02:21:55.802Z,7.75
2023-05-05T02:22:56.077Z,7.67
2023-05-05T02:23:55.755Z,7.66
2023-05-05T02:24:55.767Z,7.61
2023-05-05T02:25:55.806Z,7.67
2023-05-05T02:26:55.745Z,7.66
2023-05-05T02:27:55.741Z,7.72
2023-05-05T02:28:55.739Z,7.72
2023-05-05T02:29:55.753Z,7.73
2023-05-05T02:30:55.715Z,7.73
2023-05-05T02:31:55.710Z,7.73
2023-05-05T02:32:55.743Z,7.75
2023-05-05T02:33:55.688Z,7.69
2023-05-05T02:34:56.727Z,7.67
2023-05-05T02:35:55.685Z,7.72
2023-05-05T02:36:55.704Z,7.67
2023-05-05T02:37:56.624Z,7.61
2023-05-05T02:38:55.655Z,7.60
2023-05-05T02:39:55.663Z,7.56
2023-05-05T02:40:55.693Z,7.58
2023-05-05T02:41:55.627Z,7.53
2023-05-05T02:42:55.698Z,7.60
2023-05-05T02:43:57.528Z,7.54
2023-05-05T02:44:55.615Z,7.58
2023-05-05T02:45:55.619Z,7.58
2023-05-05T02:46:55.678Z,7.50
2023-05-05T02:47:55.627Z,7.53
2023-05-05T02:48:55.595Z,7.61
2023-05-05T02:49:55.561Z,7.51
2023-05-05T02:50:55.549Z,7.47
2023-05-05T02:51:55.583Z,7.47
2023-05-05T02:52:55.568Z,7.48
2023-05-05T02:53:55.540Z,7.50
2023-05-05T02:54:55.526Z,7.56
2023-05-05T02:55:55.523Z,7.56
2023-05-05T02:56:55.544Z,7.53
2023-05-05T02:57:55.511Z,7.54
2023-05-05T02:58:55.503Z,7.57
2023-05-05T02:59:55.484Z,7.60
2023-05-05T03:00:55.472Z,7.48
2023-05-05T03:01:55.558Z,7.50
2023-05-05T03:02:55.556Z,7.47
2023-05-05T03:03:55.591Z,7.53
2023-05-05T03:04:55.452Z,7.51
2023-05-05T03:05:55.442Z,7.51
2023-05-05T03:06:55.442Z,7.47
2023-05-05T03:07:55.461Z,7.45
2023-05-05T03:08:55.452Z,7.56
2023-05-05T03:09:55.409Z,7.51
2023-05-05T03:10:55.407Z,7.39
2023-05-05T03:11:55.382Z,7.43
2023-05-05T03:12:55.433Z,7.33
2023-05-05T03:13:55.394Z,7.33
2023-05-05T03:14:55.422Z,7.36
2023-05-05T03:15:55.401Z,7.39
2023-05-05T03:16:55.380Z,7.38
2023-05-05T03:17:55.378Z,7.39
2023-05-05T03:18:55.355Z,7.32
2023-05-05T03:19:55.315Z,7.28
2023-05-05T03:20:55.376Z,7.20
2023-05-05T03:21:55.338Z,7.25
2023-05-05T03:22:55.301Z,7.25
2023-05-05T03:23:55.346Z,7.11
2023-05-05T03:24:55.282Z,7.11
2023-05-05T03:25:55.285Z,7.03
2023-05-05T03:26:55.271Z,7.07
2023-05-05T03:27:55.250Z,7.06
2023-05-05T03:28:55.308Z,7.06
2023-05-05T03:29:55.246Z,7.05
2023-05-05T03:30:55.236Z,7.15
2023-05-05T03:31:55.294Z,7.23
2023-05-05T03:32:55.319Z,7.17
2023-05-05T03:33:55.237Z,7.14
2023-05-05T03:34:55.231Z,7.20
2023-05-05T03:35:55.204Z,7.17
2023-05-05T03:36:55.223Z,7.21
2023-05-05T03:37:55.189Z,7.07
2023-05-05T03:38:55.202Z,7.07
2023-05-05T03:39:55.178Z,7.17
2023-05-05T03:40:55.221Z,7.07
2023-05-05T03:41:55.165Z,7.17
2023-05-05T03:42:55.144Z,7.07
2023-05-05T03:43:55.170Z,7.03
2023-05-05T03:44:55.129Z,7.03
2023-05-05T03:45:55.122Z,7.03
2023-05-05T03:46:55.106Z,7.05
2023-05-05T04:03:04.028Z,6.54
2023-05-05T04:04:03.806Z,6.45
2023-05-05T04:05:03.805Z,6.49
2023-05-05T04:06:04.926Z,6.42
2023-05-05T04:07:04.905Z,6.44
2023-05-05T04:08:04.904Z,6.52
2023-05-05T04:09:04.903Z,6.62
2023-05-05T04:10:04.960Z,6.82
2023-05-05T04:11:04.872Z,6.92
2023-05-05T04:12:04.871Z,6.88
2023-05-05T04:13:04.911Z,6.92
2023-05-05T04:14:04.840Z,7.06
2023-05-05T04:15:04.839Z,7.02
2023-05-05T04:16:04.873Z,7.15
2023-05-05T04:17:04.852Z,7.18
2023-05-05T04:18:06.116Z,7.35
2023-05-05T04:19:04.808Z,7.42
2023-05-05T04:20:04.818Z,7.47
2023-05-05T04:21:04.828Z,7.58
2023-05-05T04:22:04.802Z,7.73
2023-05-05T04:23:04.757Z,7.77
2023-05-05T04:24:04.779Z,7.94
2023-05-05T04:25:04.818Z,8.15
2023-05-05T04:26:04.784Z,8.37
2023-05-05T04:27:04.732Z,8.64
2023-05-05T04:28:05.524Z,8.70
2023-05-05T04:29:04.772Z,9.00
2023-05-05T04:30:04.735Z,9.14
2023-05-05T04:31:04.817Z,9.26
2023-05-05T04:32:04.717Z,9.50
2023-05-05T04:33:04.712Z,9.73
2023-05-05T04:34:04.740Z,9.91
2023-05-05T04:35:04.692Z,10.09
2023-05-05T04:36:04.699Z,10.12
2023-05-05T04:37:04.690Z,10.25
2023-05-05T04:38:04.680Z,9.98
2023-05-05T04:39:04.709Z,9.91
2023-05-05T04:40:04.661Z,9.91
2023-05-05T04:41:04.661Z,10.12
2023-05-05T04:42:04.633Z,10.19
2023-05-05T04:43:04.631Z,9.92
2023-05-05T04:44:05.494Z,9.82
2023-05-05T04:45:04.653Z,10.07
2023-05-05T04:46:04.678Z,10.22
2023-05-05T04:47:04.635Z,10.28
2023-05-05T04:48:04.622Z,10.64
2023-05-05T04:49:04.618Z,10.57
2023-05-05T04:50:04.633Z,10.74
2023-05-05T04:51:04.648Z,11.08
2023-05-05T04:52:05.555Z,11.35
2023-05-05T04:53:05.529Z,11.40
2023-05-05T04:54:04.596Z,11.00
2023-05-05T04:55:04.593Z,11.26
2023-05-05T04:56:05.531Z,11.23
2023-05-05T04:57:05.530Z,11.07
2023-05-05T04:58:05.534Z,10.90
2023-05-05T04:59:04.525Z,10.87
2023-05-05T05:00:04.546Z,11.02
2023-05-05T05:01:04.487Z,11.04
2023-05-05T05:02:05.536Z,11.25
2023-05-05T05:03:04.534Z,11.30
2023-05-05T05:04:04.720Z,11.59
2023-05-05T05:05:04.513Z,11.77
2023-05-05T05:06:04.519Z,11.63
2023-05-05T05:07:36.395Z,11.51
2023-05-05T05:08:36.960Z,11.68
2023-05-05T05:11:01.748Z,11.75
2023-05-05T05:12:08.795Z,11.51
2023-05-05T05:13:01.779Z,11.48
2023-05-05T05:14:01.765Z,11.54
2023-05-05T05:15:02.892Z,11.27
2023-05-05T05:16:02.898Z,11.32
2023-05-05T05:17:02.842Z,11.35
2023-05-05T05:18:02.868Z,11.37
2023-05-05T05:19:02.831Z,11.50
2023-05-05T05:20:02.823Z,11.80
2023-05-05T05:21:02.834Z,12.24
2023-05-05T05:22:02.817Z,12.78
2023-05-05T05:23:03.790Z,13.18
2023-05-05T05:24:02.808Z,13.75
2023-05-05T05:25:02.790Z,13.81
2023-05-05T05:26:02.792Z,13.67
2023-05-05T05:27:02.757Z,12.87
2023-05-05T05:28:10.117Z,12.53
2023-05-05T05:29:04.756Z,12.40
2023-05-05T05:30:02.736Z,13.12
2023-05-05T05:31:02.717Z,13.63
2023-05-05T05:32:02.743Z,14.12
2023-05-05T05:33:02.716Z,14.51
2023-05-05T05:34:02.798Z,15.00
2023-05-05T05:35:02.718Z,15.57
2023-05-05T05:36:02.687Z,16.23
2023-05-05T05:37:02.687Z,16.86
2023-05-05T05:38:02.682Z,17.48
2023-05-05T05:39:02.876Z,17.98
2023-05-05T05:40:02.658Z,18.33
2023-05-05T05:41:02.661Z,18.35
2023-05-05T05:42:02.662Z,17.82
2023-05-05T05:43:02.629Z,17.68
2023-05-05T05:44:02.634Z,17.54
2023-05-05T05:45:02.647Z,17.45
2023-05-05T05:46:02.636Z,17.78
2023-05-05T05:47:02.607Z,16.79
2023-05-05T05:48:02.658Z,16.47
2023-05-05T05:49:02.630Z,15.47
2023-05-05T05:50:02.610Z,14.72
2023-05-05T05:51:02.593Z,14.55
2023-05-05T05:52:02.554Z,14.33
2023-05-05T05:53:02.551Z,13.75
2023-05-05T05:54:02.582Z,13.27
2023-05-05T05:55:02.587Z,12.50
2023-05-05T05:56:04.416Z,12.06
2023-05-05T05:57:02.574Z,11.60
2023-05-05T05:58:02.525Z,11.69
2023-05-05T05:59:02.506Z,11.69
2023-05-05T06:00:02.629Z,11.97
2023-05-05T06:01:02.516Z,12.31
2023-05-05T06:02:02.530Z,13.20
2023-05-05T06:03:02.600Z,14.41
2023-05-05T06:04:02.517Z,15.06
2023-05-05T06:05:02.474Z,15.31
2023-05-05T06:06:02.512Z,15.65
2023-05-05T06:07:02.469Z,16.31
2023-05-05T06:08:02.478Z,16.65
2023-05-05T06:09:02.451Z,16.53
2023-05-05T06:10:14.445Z,16.50
2023-05-05T06:11:04.472Z,16.32
2023-05-05T06:12:02.476Z,16.53
2023-05-05T06:13:02.525Z,16.68
2023-05-05T06:14:02.425Z,16.50
2023-05-05T06:15:02.417Z,16.76
2023-05-05T06:16:02.465Z,17.31
2023-05-05T06:17:02.428Z,17.80
2023-05-05T06:18:02.420Z,18.04
2023-05-05T06:19:02.419Z,18.44
2023-05-05T06:20:02.391Z,18.83
2023-05-05T06:21:02.383Z,19.12
2023-05-05T06:22:02.380Z,18.43
2023-05-05T06:23:02.352Z,17.90
2023-05-05T06:24:02.360Z,17.23
2023-05-05T06:25:02.357Z,16.83
2023-05-05T06:26:02.413Z,17.59
2023-05-05T06:27:02.320Z,17.54
2023-05-05T06:28:02.302Z,17.57
2023-05-05T06:29:02.328Z,18.50
2023-05-05T06:30:02.318Z,19.26
2023-05-05T06:31:02.327Z,19.59
2023-05-05T06:32:02.299Z,19.19
2023-05-05T06:33:02.355Z,19.26
2023-05-05T06:34:02.307Z,19.36
2023-05-05T06:35:02.245Z,18.93
2023-05-05T06:36:02.238Z,18.44
2023-05-05T06:37:02.285Z,18.62
2023-05-05T06:38:02.266Z,18.70
2023-05-05T06:39:02.253Z,19.39
2023-05-05T06:40:02.253Z,19.71
2023-05-05T06:41:02.215Z,18.88
2023-05-05T06:42:02.222Z,17.76
2023-05-05T06:43:02.183Z,16.51
2023-05-05T06:44:02.256Z,16.94
2023-05-05T06:45:02.222Z,17.36
2023-05-05T06:46:02.179Z,17.80
2023-05-05T06:47:02.263Z,18.44
2023-05-05T06:48:02.234Z,18.83
2023-05-05T06:49:02.175Z,18.98
2023-05-05T06:50:02.405Z,18.90
2023-05-05T06:51:03.802Z,19.27
2023-05-05T06:52:02.129Z,19.44
2023-05-05T06:53:02.143Z,19.24
2023-05-05T06:54:03.603Z,19.56
2023-05-05T06:55:02.158Z,19.64
2023-05-05T06:56:02.981Z,19.54
2023-05-05T06:57:02.088Z,19.84
2023-05-05T06:58:02.155Z,20.66
2023-05-05T06:59:02.068Z,21.35
2023-05-05T07:00:02.113Z,21.62
2023-05-05T07:01:03.026Z,22.07
2023-05-05T07:02:02.979Z,22.36
2023-05-05T07:03:02.162Z,22.87
2023-05-05T07:04:02.111Z,23.12
2023-05-05T07:05:02.025Z,23.32
2023-05-05T07:06:02.045Z,23.34
2023-05-05T07:07:02.029Z,22.85
2023-05-05T07:08:02.048Z,21.69
2023-05-05T07:09:02.014Z,20.43
2023-05-05T07:10:02.003Z,20.14
2023-05-05T07:11:02.062Z,20.32
2023-05-05T07:12:02.010Z,20.03
2023-05-05T07:13:02.063Z,19.04
2023-05-05T07:14:02.084Z,18.35
2023-05-05T07:15:12.227Z,18.75
2023-05-05T07:16:03.938Z,18.96
2023-05-05T07:17:02.145Z,19.14
2023-05-05T07:18:02.280Z,18.90
2023-05-05T07:19:01.910Z,19.18
2023-05-05T07:20:01.916Z,19.54
2023-05-05T07:21:02.498Z,19.47
2023-05-05T07:22:01.889Z,19.66
2023-05-05T07:23:01.946Z,19.96
2023-05-05T07:24:01.941Z,19.79
2023-05-05T07:25:01.875Z,20.34
2023-05-05T07:26:01.872Z,20.95
2023-05-05T07:27:01.892Z,21.29
2023-05-05T07:28:02.008Z,21.29
2023-05-05T07:29:01.855Z,20.84
2023-05-05T07:30:03.290Z,21.03
2023-05-05T07:31:01.832Z,20.77
2023-05-05T07:32:01.863Z,20.59
2023-05-05T07:33:01.856Z,21.29
2023-05-05T07:34:01.877Z,22.29
2023-05-05T07:35:01.831Z,22.35
2023-05-05T07:36:01.818Z,22.50
2023-05-05T07:37:01.823Z,23.08
2023-05-05T07:38:01.793Z,23.21
2023-05-05T07:39:01.799Z,23.06
2023-05-05T07:40:01.774Z,22.57
2023-05-05T07:41:01.765Z,22.10
2023-05-05T07:42:02.527Z,23.17
2023-05-05T07:43:01.760Z,24.28
2023-05-05T07:44:01.769Z,24.28
2023-05-05T07:45:02.542Z,24.28
2023-05-05T07:46:01.845Z,23.71
2023-05-05T07:47:01.728Z,23.87
2023-05-05T07:48:01.809Z,24.68
2023-05-05T07:49:01.721Z,24.69
2023-05-05T07:50:01.780Z,25.18
2023-05-05T07:51:01.684Z,24.68
2023-05-05T07:52:01.767Z,24.03
2023-05-05T07:53:10.733Z,24.78
2023-05-05T07:54:03.691Z,25.43
2023-05-05T07:55:01.678Z,24.33
2023-05-05T07:56:01.702Z,24.24
2023-05-05T07:57:01.696Z,24.36
2023-05-05T07:58:01.676Z,24.20
2023-05-05T07:59:01.628Z,24.05
2023-05-05T08:00:01.652Z,23.93
2023-05-05T08:01:01.712Z,23.46
2023-05-05T08:02:01.782Z,23.59
2023-05-05T08:03:01.741Z,24.10
2023-05-05T08:04:01.709Z,24.73
2023-05-05T08:05:01.625Z,24.86
2023-05-05T08:06:01.599Z,25.17
2023-05-05T08:07:01.720Z,25.44
2023-05-05T08:08:01.589Z,26.09
2023-05-05T08:09:01.600Z,25.83
2023-05-05T08:10:01.644Z,25.85
2023-05-05T08:11:01.564Z,26.33
2023-05-05T08:12:01.660Z,27.02
2023-05-05T08:13:01.635Z,27.12
2023-05-05T08:14:01.557Z,27.11
2023-05-05T08:15:01.537Z,26.84
2023-05-05T08:16:01.554Z,26.74
2023-05-05T08:17:01.538Z,26.28
2023-05-05T08:18:01.579Z,25.62
2023-05-05T08:19:02.428Z,25.21
2023-05-05T08:20:01.525Z,24.76
2023-05-05T08:21:01.569Z,24.29
2023-05-05T08:22:01.655Z,23.58
2023-05-05T08:23:01.485Z,22.75
2023-05-05T08:24:01.479Z,22.84
2023-05-05T08:25:01.457Z,22.44
2023-05-05T08:26:02.024Z,21.99
2023-05-05T08:27:01.486Z,22.17
2023-05-05T08:28:01.445Z,22.81
2023-05-05T08:29:01.410Z,23.15
2023-05-05T08:30:02.010Z,23.43
2023-05-05T08:31:01.452Z,23.58
2023-05-05T08:32:01.441Z,23.74
2023-05-05T08:33:01.477Z,23.81
2023-05-05T08:34:01.496Z,23.66
2023-05-05T08:35:01.389Z,24.16
2023-05-05T08:36:01.392Z,24.69
2023-05-05T08:37:01.364Z,24.33
2023-05-05T08:38:01.383Z,23.78
2023-05-05T08:39:01.449Z,23.71
2023-05-05T08:40:01.369Z,24.24
2023-05-05T08:41:01.375Z,24.13
2023-05-05T08:42:01.325Z,24.32
2023-05-05T08:43:01.392Z,24.63
2023-05-05T08:44:01.322Z,24.91
2023-05-05T08:45:01.341Z,25.17
2023-05-05T08:46:01.292Z,25.44
2023-05-05T08:47:01.507Z,25.68
2023-05-05T08:48:01.370Z,25.70
2023-05-05T08:49:01.311Z,24.73
2023-05-05T08:50:01.380Z,24.99
2023-05-05T08:51:03.321Z,25.93
2023-05-05T08:52:01.256Z,26.41
2023-05-05T08:53:01.313Z,26.45
2023-05-05T08:54:01.267Z,25.84
2023-05-05T08:55:01.330Z,26.41
2023-05-05T08:56:01.240Z,27.03
2023-05-05T08:57:02.070Z,26.36
2023-05-05T08:58:01.197Z,25.88
2023-05-05T08:59:01.261Z,25.81
2023-05-05T09:00:01.189Z,25.50
2023-05-05T09:01:01.245Z,24.68
2023-05-05T09:02:01.242Z,23.68
2023-05-05T09:03:02.057Z,24.17
2023-05-05T09:04:01.218Z,24.76
2023-05-05T09:05:01.227Z,25.38
2023-05-05T09:06:01.283Z,26.29
2023-05-05T09:07:01.157Z,26.85
2023-05-05T09:08:01.160Z,26.59
2023-05-05T09:09:34.123Z,26.45
2023-05-05T09:10:01.238Z,25.75
2023-05-05T09:11:02.137Z,25.18
2023-05-05T09:12:34.172Z,24.84
2023-05-05T09:13:01.142Z,24.51
2023-05-05T09:14:01.084Z,24.38
2023-05-05T09:15:01.116Z,24.86
2023-05-05T09:16:01.148Z,25.58
2023-05-05T09:17:01.670Z,25.90
2023-05-05T09:18:01.106Z,25.87
2023-05-05T09:19:01.054Z,25.10
2023-05-05T09:20:01.067Z,25.47
2023-05-05T09:21:01.082Z,25.81
2023-05-05T09:22:01.145Z,26.43
2023-05-05T09:23:01.042Z,26.37
2023-05-05T09:24:07.404Z,26.45
2023-05-05T09:25:03.005Z,27.03
2023-05-05T09:26:01.026Z,26.93
2023-05-05T09:27:01.001Z,26.68
2023-05-05T09:28:02.007Z,25.16
2023-05-05T09:29:01.956Z,25.46
2023-05-05T09:30:00.993Z,24.66
2023-05-05T09:31:02.015Z,25.32
2023-05-05T09:32:01.000Z,26.18
2023-05-05T09:33:00.989Z,26.92
2023-05-05T09:34:00.980Z,26.22
2023-05-05T09:35:00.939Z,26.25
2023-05-05T09:36:00.958Z,26.07
2023-05-05T09:37:00.981Z,26.09
2023-05-05T09:38:01.000Z,25.91
2023-05-05T09:39:00.941Z,26.33
2023-05-05T09:40:00.936Z,26.53
2023-05-05T09:41:01.025Z,26.41
2023-05-05T09:42:00.935Z,26.63
2023-05-05T09:43:00.916Z,26.70
2023-05-05T09:44:00.906Z,26.23
2023-05-05T09:45:00.877Z,25.29
2023-05-05T09:46:01.014Z,25.65
2023-05-05T09:47:00.853Z,25.87
2023-05-05T09:48:01.016Z,26.15
2023-05-05T09:49:00.888Z,26.25
2023-05-05T09:50:00.889Z,26.73
2023-05-05T09:51:00.831Z,26.80
2023-05-05T09:52:00.852Z,26.62
2023-05-05T09:53:00.879Z,26.44
2023-05-05T09:54:00.930Z,26.65
2023-05-05T09:55:00.806Z,26.55
2023-05-05T09:56:01.593Z,26.60
2023-05-05T09:57:00.819Z,26.40
2023-05-05T09:58:00.800Z,26.43
2023-05-05T09:59:00.877Z,26.66
2023-05-05T10:00:00.800Z,26.73
2023-05-05T10:01:00.769Z,26.78
2023-05-05T10:02:00.855Z,26.44
2023-05-05T10:03:00.776Z,26.66
2023-05-05T10:04:00.761Z,26.63
2023-05-05T10:05:02.298Z,26.60
2023-05-05T10:06:01.743Z,26.68
2023-05-05T10:07:00.742Z,26.95
2023-05-05T10:08:00.729Z,27.65
2023-05-05T10:09:00.699Z,27.54
2023-05-05T10:10:00.766Z,27.49
2023-05-05T10:11:02.193Z,27.49
2023-05-05T10:12:00.682Z,27.20
2023-05-05T10:13:00.714Z,26.66
2023-05-05T10:14:00.684Z,26.58
2023-05-05T10:15:00.652Z,26.41
2023-05-05T10:16:00.708Z,26.81
2023-05-05T10:17:00.696Z,27.29
2023-05-05T10:18:07.487Z,27.78
2023-05-05T10:19:02.673Z,26.78
2023-05-05T10:20:01.690Z,26.37
2023-05-05T10:21:00.612Z,26.31
2023-05-05T10:22:01.622Z,27.05
2023-05-05T10:23:00.602Z,26.89
2023-05-05T10:24:00.618Z,26.52
2023-05-05T10:25:00.601Z,26.44
2023-05-05T10:26:00.792Z,26.47
2023-05-05T10:27:00.604Z,27.12
2023-05-05T10:28:00.565Z,27.89
2023-05-05T10:29:00.555Z,27.45
2023-05-05T10:30:00.665Z,26.78
2023-05-05T10:31:00.553Z,26.84
2023-05-05T10:32:00.598Z,27.10
2023-05-05T10:33:18.226Z,27.58
2023-05-05T10:34:02.643Z,27.86
2023-05-05T10:35:00.535Z,27.87
2023-05-05T10:36:00.512Z,28.00
2023-05-05T10:37:01.461Z,28.08
2023-05-05T10:38:01.483Z,28.17
2023-05-05T10:39:00.591Z,28.17
2023-05-05T10:40:00.506Z,28.27
2023-05-05T10:41:00.505Z,28.39
2023-05-05T10:42:00.678Z,28.11
2023-05-05T10:43:00.483Z,27.64
2023-05-05T10:44:02.835Z,27.75
2023-05-05T10:45:00.491Z,27.98
2023-05-05T10:46:00.594Z,27.17
2023-05-05T10:47:00.468Z,27.21
2023-05-05T10:48:00.497Z,27.45
2023-05-05T10:49:00.538Z,27.44
2023-05-05T10:50:00.443Z,27.80
2023-05-05T10:51:00.485Z,27.65
2023-05-05T10:52:00.467Z,27.63
2023-05-05T10:53:00.406Z,26.85
2023-05-05T10:54:00.423Z,26.85
2023-05-05T10:55:00.410Z,26.44
2023-05-05T10:56:00.371Z,26.28
2023-05-05T10:57:00.408Z,26.75
2023-05-05T10:58:00.451Z,27.65
2023-05-05T10:59:00.966Z,27.48
2023-05-05T11:00:01.386Z,27.80
2023-05-05T11:01:00.380Z,27.71
2023-05-05T11:02:00.319Z,28.37
2023-05-05T11:03:00.455Z,28.60
2023-05-05T11:04:01.131Z,28.93
2023-05-05T11:05:00.348Z,28.27
2023-05-05T11:06:00.313Z,28.17
2023-05-05T11:07:00.307Z,28.51
2023-05-05T11:08:00.316Z,28.15
2023-05-05T11:09:00.288Z,27.89
2023-05-05T11:10:00.326Z,28.19
2023-05-05T11:11:00.327Z,28.44
2023-05-05T11:12:00.259Z,28.75
2023-05-05T11:13:00.346Z,28.85
2023-05-05T11:14:00.361Z,28.74
2023-05-05T11:15:01.473Z,27.45
2023-05-05T11:16:00.241Z,27.58
2023-05-05T11:17:00.276Z,27.86
2023-05-05T11:18:00.272Z,28.25
2023-05-05T11:19:00.229Z,28.54
2023-05-05T11:20:00.309Z,28.82
2023-05-05T11:21:00.232Z,28.47
2023-05-05T11:22:00.196Z,28.84
2023-05-05T11:23:00.233Z,28.63
2023-05-05T11:24:00.211Z,28.66
2023-05-05T11:25:01.185Z,28.82
2023-05-05T11:26:01.979Z,29.29
2023-05-05T11:27:00.188Z,29.31
2023-05-05T11:28:00.253Z,29.10
2023-05-05T11:29:01.186Z,28.33
2023-05-05T11:30:00.236Z,27.35
2023-05-05T11:31:00.184Z,27.03
2023-05-05T11:32:00.139Z,27.08
2023-05-05T11:33:00.162Z,27.26
2023-05-05T11:34:00.145Z,27.14
2023-05-05T11:35:00.136Z,27.03
2023-05-05T11:36:02.265Z,27.11
2023-05-05T11:37:00.118Z,27.29
2023-05-05T11:38:00.073Z,27.45
2023-05-05T11:39:00.098Z,27.35
2023-05-05T11:40:00.101Z,27.87
2023-05-05T11:41:00.130Z,28.17
2023-05-05T11:42:00.073Z,28.56
2023-05-05T11:43:00.041Z,28.62
2023-05-05T11:44:00.066Z,27.95
2023-05-05T11:45:00.056Z,28.11
2023-05-05T11:46:00.154Z,27.22
2023-05-05T11:47:00.721Z,27.54
2023-05-05T11:48:00.083Z,28.22
2023-05-05T11:49:00.014Z,27.87
2023-05-05T11:50:00.057Z,27.63
2023-05-05T11:50:59.964Z,27.47
2023-05-05T11:52:00.008Z,27.45
2023-05-05T11:52:59.970Z,27.26
2023-05-05T11:53:59.974Z,27.52
2023-05-05T11:54:59.963Z,27.98
2023-05-05T11:55:59.965Z,27.96
2023-05-05T11:56:59.967Z,28.45
2023-05-05T11:57:59.929Z,28.81
2023-05-05T11:58:59.950Z,28.93
2023-05-05T11:59:59.944Z,29.14
2023-05-05T12:00:59.920Z,29.29
2023-05-05T12:01:59.941Z,28.20
2023-05-05T12:03:00.024Z,27.32
2023-05-05T12:03:59.994Z,26.93
2023-05-05T12:04:59.960Z,27.12
2023-05-05T12:05:59.880Z,27.77
2023-05-05T12:06:59.902Z,28.49
2023-05-05T12:07:59.958Z,28.79
2023-05-05T12:08:59.866Z,28.97
2023-05-05T12:09:59.861Z,29.36
2023-05-05T12:10:59.853Z,29.93
2023-05-05T12:11:59.866Z,29.61
2023-05-05T12:12:59.904Z,29.69
2023-05-05T12:13:59.826Z,29.57
2023-05-05T12:14:59.844Z,29.17
2023-05-05T12:15:59.833Z,29.02
2023-05-05T12:16:59.801Z,28.89
2023-05-05T12:18:02.124Z,28.81
2023-05-05T12:18:59.809Z,28.97
2023-05-05T12:19:59.779Z,28.75
2023-05-05T12:20:59.803Z,28.37
2023-05-05T12:21:59.798Z,28.29
2023-05-05T12:22:59.810Z,28.26
2023-05-05T12:24:00.587Z,28.23
2023-05-05T12:24:59.748Z,27.78
2023-05-05T12:25:59.773Z,27.55
2023-05-05T12:26:59.737Z,27.45
2023-05-05T12:27:59.798Z,27.36
2023-05-05T12:28:59.759Z,27.63
2023-05-05T12:29:59.757Z,27.65
2023-05-05T12:30:59.805Z,27.45
2023-05-05T12:31:59.756Z,27.40
2023-05-05T12:32:59.793Z,27.30
2023-05-05T12:33:59.758Z,27.29
2023-05-05T12:34:59.733Z,27.25
2023-05-05T12:35:59.720Z,27.29
2023-05-05T12:36:59.706Z,27.15
2023-05-05T12:37:59.770Z,27.17
2023-05-05T12:38:59.687Z,26.78
2023-05-05T12:39:59.684Z,26.68
2023-05-05T12:40:59.671Z,26.34
2023-05-05T12:41:59.652Z,26.59
2023-05-05T12:42:59.650Z,26.75
2023-05-05T12:43:59.623Z,26.78
2023-05-05T12:44:59.728Z,26.90
2023-05-05T12:45:59.673Z,26.74
2023-05-05T12:46:59.614Z,26.71
2023-05-05T12:47:59.657Z,26.89
2023-05-05T12:48:59.593Z,27.08
2023-05-05T12:49:59.675Z,27.10
2023-05-05T12:51:00.170Z,27.17
2023-05-05T12:51:59.618Z,27.00
2023-05-05T12:52:59.582Z,26.85
2023-05-05T12:53:59.580Z,26.62
2023-05-05T12:54:59.598Z,26.58
2023-05-05T12:55:59.584Z,26.45
2023-05-05T12:56:59.579Z,26.37
2023-05-05T12:58:00.251Z,26.59
2023-05-05T12:58:59.556Z,26.63
2023-05-05T12:59:59.516Z,26.59
2023-05-05T13:00:59.616Z,26.73
2023-05-05T13:01:59.839Z,26.78
2023-05-05T13:02:59.608Z,26.55
2023-05-05T13:04:00.210Z,26.41
2023-05-05T13:04:59.502Z,26.26
2023-05-05T13:05:59.499Z,26.22
2023-05-05T13:06:59.773Z,26.05
2023-05-05T13:07:59.510Z,26.31
2023-05-05T13:09:00.024Z,26.36
2023-05-05T13:10:00.481Z,26.06
2023-05-05T13:10:59.490Z,26.05
2023-05-05T13:11:59.495Z,26.06
2023-05-05T13:12:59.508Z,25.99
2023-05-05T13:13:59.453Z,25.99
2023-05-05T13:14:59.435Z,25.81
2023-05-05T13:15:59.451Z,25.84
2023-05-05T13:16:59.428Z,25.73
2023-05-05T13:17:59.480Z,25.65
2023-05-05T13:18:59.392Z,25.62